Time;durP1;ratioP1;P1;durP2;ratioP2;P2;SDS_P1;SDS_P2;PMS_P1;PMS_P2;Temp;Humidity;BMP_temperature;BMP_pressure;BME280_temperature;BME280_humidity;BME280_pressure;Samples;Min_cycle;Max_cycle;Signal;HPM_P1;HPM_P2
2022/11/04 00:00:03;;;;;;;;;;;;;;;;;;2114115;28;19916;-88
2022/11/04 00:01:04;;;;;;;;;;;;;;;;;;2114320;28;19965;-88
2022/11/04 00:02:04;;;;;;;;;;;;;;;;;;2097963;28;19912;-88
2022/11/04 00:03:04;;;;;;;;;;;;;;;;;;2114112;28;19912;-88
2022/11/04 00:04:05;;;;;;;;;;;;;;;;;;2105744;28;19923;-88
2022/11/04 00:05:06;;;;;;;;;;;;;;;;;;2090663;28;20131;-89
2022/11/04 00:06:07;;;;;;;;;;;;;;;;;;2091260;28;19920;-88
2022/11/04 00:08:22;;;;;;;;;;;;;;;;;;2089481;28;20465;-88
2022/11/04 00:08:28;;;;;;;;;;;;;;;;;;2097531;28;20393;-88
2022/11/04 00:09:30;;;;;;;;;;;;;;;;;;2098266;28;20001;-88
2022/11/04 00:13:09;;;;;;;;;;;;;;;;;;2098160;28;19991;-88
2022/11/04 00:14:09;;;;;;;;;;;;;;;;;;2098125;28;19912;-89
2022/11/04 00:17:47;;;;;;;;;;;;;;;;;;2098110;28;20434;-88
2022/11/04 00:18:48;;;;;;;;;;;;;;;;;;2113981;28;19960;-89
2022/11/04 00:29:05;;;;;;;;;;;;;;;;;;2097545;28;19921;-89
2022/11/04 00:30:08;;;;;;;;;;;;;;;;;;2097088;28;19964;-89
2022/11/04 00:33:47;;;;;;;;;;;;;;;;;;2098026;28;19917;-87
2022/11/04 00:34:48;;;;;;;;;;;;;;;;;;2097938;28;19930;-87
2022/11/04 00:35:48;;;;;;;;;;;;;;;;;;2097907;28;20314;-87
2022/11/04 00:36:49;;;;;;;;;;;;;;;;;;2114266;28;19958;-89
2022/11/04 00:37:49;;;;;;;;;;;;;;;;;;2114108;28;19918;-87
2022/11/04 00:38:49;;;;;;;;;;;;;;;;;;2097728;28;19913;-88
2022/11/04 00:39:50;;;;;;;;;;;;;;;;;;2097393;28;19912;-88
2022/11/04 00:40:50;;;;;;;;;;;;;;;;;;2113427;28;19911;-88
2022/11/04 00:41:50;;;;;;;;;;;;;;;;;;2114048;28;19915;-88
2022/11/04 00:42:50;;;;;;;;;;;;;;;;;;2097235;28;20418;-88
2022/11/04 00:44:09;;;;;;;;;;;;;;;;;;2088495;28;19912;-88
2022/11/04 00:45:09;;;;;;;;;;;;;;;;;;2091248;28;19921;-88
2022/11/04 00:46:09;;;;;;;;;;;;;;;;;;2096962;28;19978;-88
2022/11/04 00:47:10;;;;;;;;;;;;;;;;;;2105294;28;20003;-88
2022/11/04 00:48:10;;;;;;;;;;;;;;;;;;2113782;28;19911;-88
2022/11/04 00:49:11;;;;;;;;;;;;;;;;;;2105393;28;19922;-87
2022/11/04 00:50:12;;;;;;;;;;;;;;;;;;2096980;28;20017;-88
2022/11/04 00:51:12;;;;;;;;;;;;;;;;;;2097031;28;20374;-88
2022/11/04 00:52:12;;;;;;;;;;;;;;;;;;2104247;28;20316;-88
2022/11/04 00:53:13;;;;;;;;;;;;;;;;;;2105416;28;19972;-88
2022/11/04 00:54:13;;;;;;;;;;;;;;;;;;2097247;28;19970;-88
2022/11/04 00:55:13;;;;;;;;;;;;;;;;;;2096829;28;20328;-88
2022/11/04 00:56:13;;;;;;;;;;;;;;;;;;2096809;28;19948;-87
2022/11/04 00:57:14;;;;;;;;;;;;;;;;;;2096802;28;19912;-88
2022/11/04 00:58:14;;;;;;;;;;;;;;;;;;2088890;28;20049;-88
2022/11/04 00:59:14;;;;;;;;;;;;;;;;;;2088345;28;20346;-88
2022/11/04 01:00:15;;;;;;;;;;;;;;;;;;2097098;28;19935;-88
2022/11/04 01:01:18;;;;;;;;;;;;;;;;;;2097683;28;20614;-89
2022/11/04 01:02:18;;;;;;;;;;;;;;;;;;2113492;28;19912;-88
2022/11/04 01:03:19;;;;;;;;;;;;;;;;;;2105421;28;19916;-88
2022/11/04 01:04:19;;;;;;;;;;;;;;;;;;2088465;28;19939;-88
2022/11/04 01:05:20;;;;;;;;;;;;;;;;;;2096664;28;19932;-88
2022/11/04 01:06:21;;;;;;;;;;;;;;;;;;2097470;28;20306;-88
2022/11/04 01:07:21;;;;;;;;;;;;;;;;;;2097477;28;19912;-88
2022/11/04 01:08:21;;;;;;;;;;;;;;;;;;2096735;28;20006;-88
2022/11/04 01:09:22;;;;;;;;;;;;;;;;;;2096816;28;19920;-88
2022/11/04 01:10:22;;;;;;;;;;;;;;;;;;2097681;28;19919;-89
2022/11/04 01:11:24;;;;;;;;;;;;;;;;;;1750089;28;10001110;-89
2022/11/04 01:12:24;;;;;;;;;;;;;;;;;;2105428;28;19911;-89
2022/11/04 01:13:25;;;;;;;;;;;;;;;;;;2108527;28;20061;-89
2022/11/04 01:14:25;;;;;;;;;;;;;;;;;;2097412;28;19912;-88
2022/11/04 01:15:25;;;;;;;;;;;;;;;;;;2097475;28;20388;-89
2022/11/04 01:16:26;;;;;;;;;;;;;;;;;;2096677;28;19923;-88
2022/11/04 01:17:26;;;;;;;;;;;;;;;;;;2096881;28;19920;-87
2022/11/04 01:18:27;;;;;;;;;;;;;;;;;;2097290;28;19912;-88
2022/11/04 01:19:27;;;;;;;;;;;;;;;;;;2096521;28;19942;-88
2022/11/04 01:20:28;;;;;;;;;;;;;;;;;;2105036;28;19912;-88
2022/11/04 01:21:28;;;;;;;;;;;;;;;;;;2113361;28;20002;-88
2022/11/04 01:22:28;;;;;;;;;;;;;;;;;;2096739;28;20517;-87
2022/11/04 01:23:28;;;;;;;;;;;;;;;;;;2096451;28;20390;-87
2022/11/04 01:24:29;;;;;;;;;;;;;;;;;;2113170;28;19938;-88
2022/11/04 01:25:29;;;;;;;;;;;;;;;;;;2104697;28;20030;-88
2022/11/04 01:26:30;;;;;;;;;;;;;;;;;;2096353;28;19919;-88
2022/11/04 01:27:30;;;;;;;;;;;;;;;;;;2096323;28;20458;-87
2022/11/04 01:28:30;;;;;;;;;;;;;;;;;;2087806;28;19920;-87
2022/11/04 01:29:31;;;;;;;;;;;;;;;;;;2096410;28;19999;-88
2022/11/04 01:30:31;;;;;;;;;;;;;;;;;;2096236;28;19943;-87
2022/11/04 01:31:31;;;;;;;;;;;;;;;;;;2096373;28;19913;-88
2022/11/04 01:32:31;;;;;;;;;;;;;;;;;;2097196;28;19913;-88
2022/11/04 01:33:32;;;;;;;;;;;;;;;;;;2097149;28;19959;-88
2022/11/04 01:34:32;;;;;;;;;;;;;;;;;;2112959;28;20342;-87
2022/11/04 01:35:32;;;;;;;;;;;;;;;;;;2104738;28;19920;-87
2022/11/04 01:36:33;;;;;;;;;;;;;;;;;;2088049;28;20317;-88
2022/11/04 01:37:33;;;;;;;;;;;;;;;;;;2088218;28;19960;-88
2022/11/04 01:38:33;;;;;;;;;;;;;;;;;;2096410;28;19916;-87
2022/11/04 01:39:34;;;;;;;;;;;;;;;;;;2096533;28;19919;-88
2022/11/04 01:40:38;;;;;;;;;;;;;;;;;;2087893;28;19917;-89
2022/11/04 01:41:38;;;;;;;;;;;;;;;;;;2096392;28;19923;-88
2022/11/04 01:42:39;;;;;;;;;;;;;;;;;;2112762;28;19919;-86
2022/11/04 01:43:48;;;;;;;;;;;;;;;;;;2104605;28;19927;-88
2022/11/04 01:44:49;;;;;;;;;;;;;;;;;;2089131;28;19920;-88
2022/11/04 01:45:52;;;;;;;;;;;;;;;;;;2096430;28;19955;-87
2022/11/04 01:46:52;;;;;;;;;;;;;;;;;;2097002;28;20091;-88
2022/11/04 01:48:20;;;;;;;;;;;;;;;;;;2121384;28;19907;-88
2022/11/04 01:49:36;;;;;;;;;;;;;;;;;;2113075;27;19917;-88
2022/11/04 01:50:36;;;;;;;;;;;;;;;;;;2122124;28;19995;-88
2022/11/04 01:51:39;;;;;;;;;;;;;;;;;;2111027;28;19947;-87
2022/11/04 01:52:42;;;;;;;;;;;;;;;;;;2108006;28;19913;-87
2022/11/04 01:53:43;;;;;;;;;;;;;;;;;;2112904;28;19911;-87
2022/11/04 01:54:45;;;;;;;;;;;;;;;;;;2097156;28;19912;-87
2022/11/04 01:55:48;;;;;;;;;;;;;;;;;;2096205;28;19912;-87
2022/11/04 01:56:48;;;;;;;;;;;;;;;;;;2105047;28;19912;-87
2022/11/04 01:57:50;;;;;;;;;;;;;;;;;;2113185;28;20393;-87
2022/11/04 01:58:53;;;;;;;;;;;;;;;;;;2096526;28;19916;-87
2022/11/04 02:00:03;;;;;;;;;;;;;;;;;;2039132;28;10001792;-87
2022/11/04 02:01:04;;;;;;;;;;;;;;;;;;2113151;28;19919;-87
2022/11/04 02:02:04;;;;;;;;;;;;;;;;;;2111594;28;19916;-87
2022/11/04 02:03:07;;;;;;;;;;;;;;;;;;2106120;28;20409;-86
2022/11/04 02:04:25;;;;;;;;;;;;;;;;;;2116995;28;19912;-85
2022/11/04 02:05:26;;;;;;;;;;;;;;;;;;2110895;28;19911;-86
2022/11/04 02:06:26;;;;;;;;;;;;;;;;;;1757239;28;10109594;-87
2022/11/04 02:07:27;;;;;;;;;;;;;;;;;;2109977;28;19994;-86
2022/11/04 02:08:27;;;;;;;;;;;;;;;;;;2106408;28;19978;-86
2022/11/04 02:09:29;;;;;;;;;;;;;;;;;;2107463;28;19912;-86
2022/11/04 02:10:30;;;;;;;;;;;;;;;;;;2123472;27;19947;-87
2022/11/04 02:12:49;;;;;;;;;;;;;;;;;;2096922;28;19955;-87
2022/11/04 02:13:49;;;;;;;;;;;;;;;;;;2097132;28;19913;-87
2022/11/04 02:14:50;;;;;;;;;;;;;;;;;;2096924;28;19967;-86
2022/11/04 02:16:05;;;;;;;;;;;;;;;;;;2096850;28;20293;-87
2022/11/04 02:17:27;;;;;;;;;;;;;;;;;;2112822;28;19918;-87
2022/11/04 02:18:45;;;;;;;;;;;;;;;;;;2101358;28;19912;-87
2022/11/04 02:20:01;;;;;;;;;;;;;;;;;;2096562;28;19912;-87
2022/11/04 02:21:20;;;;;;;;;;;;;;;;;;2096813;28;19913;-87
2022/11/04 02:22:24;;;;;;;;;;;;;;;;;;2096034;28;19999;-87
2022/11/04 02:23:24;;;;;;;;;;;;;;;;;;2096398;28;19912;-87
2022/11/04 02:24:33;;;;;;;;;;;;;;;;;;2096637;28;20503;-88
2022/11/04 02:25:57;;;;;;;;;;;;;;;;;;2096747;28;19924;-87
2022/11/04 02:27:16;;;;;;;;;;;;;;;;;;2096618;28;20004;-86
2022/11/04 02:28:25;;;;;;;;;;;;;;;;;;2095975;28;19920;-87
2022/11/04 02:29:30;;;;;;;;;;;;;;;;;;2105476;28;19960;-87
2022/11/04 02:30:34;;;;;;;;;;;;;;;;;;2111732;28;20392;-88
2022/11/04 02:31:40;;;;;;;;;;;;;;;;;;2112765;28;20017;-89
2022/11/04 02:32:47;;;;;;;;;;;;;;;;;;2111455;28;19912;-88
2022/11/04 02:33:47;;;;;;;;;;;;;;;;;;2112769;28;20025;-88
2022/11/04 02:35:06;;;;;;;;;;;;;;;;;;2104353;28;19912;-88
2022/11/04 02:36:17;;;;;;;;;;;;;;;;;;2096508;28;20420;-88
2022/11/04 02:37:30;;;;;;;;;;;;;;;;;;2096805;28;19920;-88
2022/11/04 02:38:33;;;;;;;;;;;;;;;;;;2095756;28;19919;-88
2022/11/04 02:39:33;;;;;;;;;;;;;;;;;;2096051;28;20376;-88
2022/11/04 02:40:42;;;;;;;;;;;;;;;;;;2096167;28;19912;-88
2022/11/04 02:41:52;;;;;;;;;;;;;;;;;;2096118;28;20429;-88
2022/11/04 02:42:52;;;;;;;;;;;;;;;;;;2096698;28;20361;-88
2022/11/04 02:43:58;;;;;;;;;;;;;;;;;;2096027;28;19913;-88
2022/11/04 02:45:03;;;;;;;;;;;;;;;;;;2105049;28;19917;-89
2022/11/04 02:46:08;;;;;;;;;;;;;;;;;;2103745;28;19916;-88
2022/11/04 02:47:15;;;;;;;;;;;;;;;;;;1737738;28;10243046;-88
2022/11/04 02:48:16;;;;;;;;;;;;;;;;;;2096760;28;19923;-88
2022/11/04 02:49:27;;;;;;;;;;;;;;;;;;2096008;28;19939;-88
2022/11/04 02:50:48;;;;;;;;;;;;;;;;;;2096077;28;19962;-87
2022/11/04 02:52:08;;;;;;;;;;;;;;;;;;2101754;28;19916;-87
2022/11/04 02:53:22;;;;;;;;;;;;;;;;;;2107658;28;20397;-86
2022/11/04 02:54:34;;;;;;;;;;;;;;;;;;2096659;28;19981;-87
2022/11/04 02:55:40;;;;;;;;;;;;;;;;;;2095990;28;19920;-88
2022/11/04 02:56:44;;;;;;;;;;;;;;;;;;2096085;28;20369;-88
2022/11/04 02:57:45;;;;;;;;;;;;;;;;;;2096507;28;19924;-88
2022/11/04 02:58:52;;;;;;;;;;;;;;;;;;2096775;28;20019;-88
2022/11/04 03:00:12;;;;;;;;;;;;;;;;;;2112748;28;19912;-87
2022/11/04 03:01:15;;;;;;;;;;;;;;;;;;2101787;28;19969;-88
2022/11/04 03:02:18;;;;;;;;;;;;;;;;;;2087934;28;20256;-88
2022/11/04 03:03:22;;;;;;;;;;;;;;;;;;2087938;28;19913;-88
2022/11/04 03:04:28;;;;;;;;;;;;;;;;;;2088119;28;19935;-88
2022/11/04 03:05:36;;;;;;;;;;;;;;;;;;2096218;28;19921;-88
2022/11/04 03:06:36;;;;;;;;;;;;;;;;;;2096627;28;19980;-88
2022/11/04 03:07:38;;;;;;;;;;;;;;;;;;2096785;28;19917;-88
2022/11/04 03:08:40;;;;;;;;;;;;;;;;;;2096563;28;19962;-88
2022/11/04 03:09:43;;;;;;;;;;;;;;;;;;2112647;28;19916;-88
2022/11/04 03:10:45;;;;;;;;;;;;;;;;;;2112272;28;19991;-88
2022/11/04 03:11:48;;;;;;;;;;;;;;;;;;2095860;28;19923;-88
2022/11/04 03:12:56;;;;;;;;;;;;;;;;;;2095986;28;19919;-89
2022/11/04 03:13:56;;;;;;;;;;;;;;;;;;2096977;28;20058;-88
2022/11/04 03:15:03;;;;;;;;;;;;;;;;;;2104400;28;19926;-88
2022/11/04 03:16:08;;;;;;;;;;;;;;;;;;2114232;28;19912;-88
2022/11/04 03:17:14;;;;;;;;;;;;;;;;;;2105351;28;19916;-88
2022/11/04 03:18:14;;;;;;;;;;;;;;;;;;2098299;28;20367;-86
2022/11/04 03:19:33;;;;;;;;;;;;;;;;;;2097231;28;19919;-88
2022/11/04 03:20:35;;;;;;;;;;;;;;;;;;2097799;28;19986;-88
2022/11/04 03:21:37;;;;;;;;;;;;;;;;;;2098106;28;19993;-87
2022/11/04 03:22:37;;;;;;;;;;;;;;;;;;1402166;28;10001999;-87
2022/11/04 03:23:38;;;;;;;;;;;;;;;;;;2114306;28;19946;-87
2022/11/04 03:24:39;;;;;;;;;;;;;;;;;;2106267;28;19920;-87
2022/11/04 03:25:42;;;;;;;;;;;;;;;;;;2097436;28;19939;-88
2022/11/04 03:26:42;;;;;;;;;;;;;;;;;;2097378;28;19943;-87
2022/11/04 03:27:45;;;;;;;;;;;;;;;;;;2097427;28;19912;-87
2022/11/04 03:28:51;;;;;;;;;;;;;;;;;;2107786;28;19962;-94
2022/11/04 03:29:58;;;;;;;;;;;;;;;;;;2106828;28;20373;-94
2022/11/04 03:31:00;;;;;;;;;;;;;;;;;;2091448;28;19916;-94
2022/11/04 03:32:19;;;;;;;;;;;;;;;;;;2107447;28;19916;-94
2022/11/04 03:33:31;;;;;;;;;;;;;;;;;;2105011;28;19997;-95
2022/11/04 03:34:31;;;;;;;;;;;;;;;;;;2092330;28;19912;-96
2022/11/04 03:35:32;;;;;;;;;;;;;;;;;;2107378;28;20458;-95
2022/11/04 03:36:32;;;;;;;;;;;;;;;;;;2107027;28;19962;-95
2022/11/04 03:37:33;;;;;;;;;;;;;;;;;;2090509;28;19968;-94
2022/11/04 03:38:34;;;;;;;;;;;;;;;;;;2090456;28;19971;-95
2022/11/04 03:39:34;;;;;;;;;;;;;;;;;;2098912;28;19912;-95
2022/11/04 03:40:35;;;;;;;;;;;;;;;;;;2115610;28;20355;-95
2022/11/04 03:41:49;;;;;;;;;;;;;;;;;;2107009;28;19977;-95
2022/11/04 03:42:55;;;;;;;;;;;;;;;;;;2107422;28;19916;-87
2022/11/04 03:43:56;;;;;;;;;;;;;;;;;;2114527;28;20315;-86
2022/11/04 03:44:57;;;;;;;;;;;;;;;;;;2097270;28;19923;-86
2022/11/04 03:45:57;;;;;;;;;;;;;;;;;;2088873;28;19980;-88
2022/11/04 03:46:57;;;;;;;;;;;;;;;;;;2089006;28;19962;-88
2022/11/04 03:47:58;;;;;;;;;;;;;;;;;;2088887;28;20445;-87
2022/11/04 03:48:59;;;;;;;;;;;;;;;;;;2088728;28;20400;-88
2022/11/04 03:50:20;;;;;;;;;;;;;;;;;;2097230;28;19920;-88
2022/11/04 03:51:20;;;;;;;;;;;;;;;;;;2084393;28;19956;-88
2022/11/04 03:52:22;;;;;;;;;;;;;;;;;;2088931;28;19913;-88
2022/11/04 03:53:23;;;;;;;;;;;;;;;;;;2097611;28;20382;-87
2022/11/04 03:54:23;;;;;;;;;;;;;;;;;;2100506;28;20007;-87
2022/11/04 03:55:29;;;;;;;;;;;;;;;;;;2117330;28;19911;-87
2022/11/04 03:56:33;;;;;;;;;;;;;;;;;;2113126;28;20318;-87
2022/11/04 03:57:36;;;;;;;;;;;;;;;;;;2098298;28;20657;-87
2022/11/04 03:58:45;;;;;;;;;;;;;;;;;;2097103;28;19998;-87
2022/11/04 03:59:59;;;;;;;;;;;;;;;;;;2097550;28;19913;-88
2022/11/04 04:01:20;;;;;;;;;;;;;;;;;;2097937;28;19912;-87
2022/11/04 04:02:32;;;;;;;;;;;;;;;;;;2097675;28;19967;-87
2022/11/04 04:03:38;;;;;;;;;;;;;;;;;;2097947;28;19916;-87
2022/11/04 04:04:43;;;;;;;;;;;;;;;;;;2097443;28;20374;-87
2022/11/04 04:05:49;;;;;;;;;;;;;;;;;;2097190;28;19912;-87
2022/11/04 04:06:50;;;;;;;;;;;;;;;;;;2097762;28;19923;-87
2022/11/04 04:08:07;;;;;;;;;;;;;;;;;;2097185;28;19991;-87
2022/11/04 04:09:23;;;;;;;;;;;;;;;;;;2099415;28;19931;-87
2022/11/04 04:10:38;;;;;;;;;;;;;;;;;;2103913;28;20065;-87
2022/11/04 04:11:41;;;;;;;;;;;;;;;;;;2096883;28;20003;-87
2022/11/04 04:12:41;;;;;;;;;;;;;;;;;;2097357;28;20045;-87
2022/11/04 04:14:01;;;;;;;;;;;;;;;;;;2113760;28;19969;-87
2022/11/04 04:15:04;;;;;;;;;;;;;;;;;;1744427;28;10233211;-87
2022/11/04 04:16:14;;;;;;;;;;;;;;;;;;2096944;28;20357;-87
2022/11/04 04:17:18;;;;;;;;;;;;;;;;;;2097851;28;20352;-87
2022/11/04 04:18:23;;;;;;;;;;;;;;;;;;2105987;28;19901;-88
2022/11/04 04:19:23;;;;;;;;;;;;;;;;;;2099964;28;19916;-88
2022/11/04 04:20:25;;;;;;;;;;;;;;;;;;2099087;28;19908;-87
2022/11/04 04:21:30;;;;;;;;;;;;;;;;;;2098207;28;20190;-88
2022/11/04 04:22:33;;;;;;;;;;;;;;;;;;2103809;28;19922;-88
2022/11/04 04:27:52;;;;;;;;;;;;;;;;;;2096975;28;20007;-88
2022/11/04 04:28:53;;;;;;;;;;;;;;;;;;2096521;28;19925;-88
2022/11/04 04:29:53;;;;;;;;;;;;;;;;;;2089170;28;20091;-87
2022/11/04 04:30:54;;;;;;;;;;;;;;;;;;2105484;28;20335;-87
2022/11/04 04:31:56;;;;;;;;;;;;;;;;;;2113722;28;20369;-87
2022/11/04 04:32:58;;;;;;;;;;;;;;;;;;2098619;28;19939;-88
2022/11/04 04:33:58;;;;;;;;;;;;;;;;;;2098510;28;20011;-87
2022/11/04 04:36:17;;;;;;;;;;;;;;;;;;2098040;28;20379;-88
2022/11/04 04:37:22;;;;;;;;;;;;;;;;;;2106495;28;19934;-88
2022/11/04 04:45:17;;;;;;;;;;;;;;;;;;2097623;28;20355;-88
2022/11/04 04:46:18;;;;;;;;;;;;;;;;;;2113621;28;20436;-87
2022/11/04 04:47:20;;;;;;;;;;;;;;;;;;2105191;28;19912;-88
2022/11/04 04:48:20;;;;;;;;;;;;;;;;;;2096932;28;19919;-87
2022/11/04 04:49:20;;;;;;;;;;;;;;;;;;2097608;28;19917;-88
2022/11/04 04:50:21;;;;;;;;;;;;;;;;;;2113836;28;19915;-89
2022/11/04 04:51:21;;;;;;;;;;;;;;;;;;2113778;28;19998;-88
2022/11/04 04:52:23;;;;;;;;;;;;;;;;;;2096759;28;20257;-88
2022/11/04 04:53:23;;;;;;;;;;;;;;;;;;2088668;28;19920;-88
2022/11/04 04:54:23;;;;;;;;;;;;;;;;;;2105143;28;20326;-87
2022/11/04 04:55:24;;;;;;;;;;;;;;;;;;2113473;28;19918;-86
2022/11/04 04:56:24;;;;;;;;;;;;;;;;;;2096773;28;19955;-86
2022/11/04 04:57:24;;;;;;;;;;;;;;;;;;2088235;28;20026;-87
2022/11/04 04:58:24;;;;;;;;;;;;;;;;;;2088158;28;20021;-87
2022/11/04 04:59:25;;;;;;;;;;;;;;;;;;2096638;28;20020;-87
2022/11/04 05:00:25;;;;;;;;;;;;;;;;;;2096895;28;19919;-87
2022/11/04 05:01:25;;;;;;;;;;;;;;;;;;2104958;28;19920;-87
2022/11/04 05:02:26;;;;;;;;;;;;;;;;;;2113512;28;19918;-87
2022/11/04 05:03:26;;;;;;;;;;;;;;;;;;2097476;28;19924;-88
2022/11/04 05:04:26;;;;;;;;;;;;;;;;;;2097691;28;19920;-88
2022/11/04 05:05:26;;;;;;;;;;;;;;;;;;2096792;28;19913;-87
2022/11/04 05:06:27;;;;;;;;;;;;;;;;;;2096816;28;19916;-87
2022/11/04 05:07:27;;;;;;;;;;;;;;;;;;2113406;28;19949;-88
2022/11/04 05:08:27;;;;;;;;;;;;;;;;;;2113439;28;19988;-88
2022/11/04 05:09:28;;;;;;;;;;;;;;;;;;2105015;28;20363;-88
2022/11/04 05:10:28;;;;;;;;;;;;;;;;;;2096612;28;19958;-89
2022/11/04 05:11:28;;;;;;;;;;;;;;;;;;2088091;28;20027;-88
2022/11/04 05:13:47;;;;;;;;;;;;;;;;;;2097573;28;19917;-87
2022/11/04 05:14:47;;;;;;;;;;;;;;;;;;2097160;28;20376;-87
2022/11/04 05:15:48;;;;;;;;;;;;;;;;;;2113477;28;19912;-88
2022/11/04 05:16:48;;;;;;;;;;;;;;;;;;2105050;28;20125;-86
2022/11/04 05:17:52;;;;;;;;;;;;;;;;;;2088404;28;20334;-89
2022/11/04 05:18:52;;;;;;;;;;;;;;;;;;2096889;28;19940;-88
2022/11/04 05:19:53;;;;;;;;;;;;;;;;;;2096585;28;20383;-86
2022/11/04 05:20:53;;;;;;;;;;;;;;;;;;2096666;28;19999;-88
2022/11/04 05:21:53;;;;;;;;;;;;;;;;;;2113131;28;20435;-87
2022/11/04 05:22:53;;;;;;;;;;;;;;;;;;2113312;28;20263;-86
2022/11/04 05:23:54;;;;;;;;;;;;;;;;;;2097139;28;19958;-86
2022/11/04 05:24:54;;;;;;;;;;;;;;;;;;2113520;28;19911;-88
2022/11/04 05:25:56;;;;;;;;;;;;;;;;;;2104972;28;19927;-88
2022/11/04 05:26:57;;;;;;;;;;;;;;;;;;2096667;28;19969;-88
2022/11/04 05:28:01;;;;;;;;;;;;;;;;;;2097059;28;19997;-86
2022/11/04 05:29:01;;;;;;;;;;;;;;;;;;2113018;28;20282;-88
2022/11/04 05:30:02;;;;;;;;;;;;;;;;;;2113310;28;20049;-88
2022/11/04 05:31:03;;;;;;;;;;;;;;;;;;2096361;28;20090;-87
2022/11/04 05:32:04;;;;;;;;;;;;;;;;;;2096547;28;20468;-88
2022/11/04 05:33:04;;;;;;;;;;;;;;;;;;2097005;28;19916;-87
2022/11/04 05:34:05;;;;;;;;;;;;;;;;;;2096403;28;19953;-86
2022/11/04 05:35:05;;;;;;;;;;;;;;;;;;2096531;28;19912;-88
2022/11/04 05:36:09;;;;;;;;;;;;;;;;;;2096353;28;20208;-87
2022/11/04 05:37:09;;;;;;;;;;;;;;;;;;2088225;28;20003;-88
2022/11/04 05:38:10;;;;;;;;;;;;;;;;;;2104237;28;19912;-87
2022/11/04 05:39:12;;;;;;;;;;;;;;;;;;2104640;28;19912;-86
2022/11/04 05:40:12;;;;;;;;;;;;;;;;;;2088034;28;20019;-88
2022/11/04 05:41:24;;;;;;;;;;;;;;;;;;2088120;28;19913;-88
2022/11/04 05:42:24;;;;;;;;;;;;;;;;;;2099363;28;19912;-89
2022/11/04 05:43:25;;;;;;;;;;;;;;;;;;2097015;28;20025;-88
2022/11/04 05:44:25;;;;;;;;;;;;;;;;;;2112981;28;19912;-88
2022/11/04 05:45:26;;;;;;;;;;;;;;;;;;2113747;28;20227;-88
2022/11/04 05:46:27;;;;;;;;;;;;;;;;;;2098303;28;19924;-88
2022/11/04 05:47:27;;;;;;;;;;;;;;;;;;2096895;28;19930;-90
2022/11/04 05:48:27;;;;;;;;;;;;;;;;;;2104784;28;20321;-89
2022/11/04 05:49:27;;;;;;;;;;;;;;;;;;2112981;28;20070;-89
2022/11/04 05:50:30;;;;;;;;;;;;;;;;;;2097152;28;19954;-89
2022/11/04 05:51:31;;;;;;;;;;;;;;;;;;2113010;28;20396;-89
2022/11/04 05:52:32;;;;;;;;;;;;;;;;;;2104737;28;19912;-89
2022/11/04 05:53:32;;;;;;;;;;;;;;;;;;2088202;28;20015;-87
2022/11/04 05:54:33;;;;;;;;;;;;;;;;;;2104454;28;20529;-89
2022/11/04 05:55:33;;;;;;;;;;;;;;;;;;2112146;28;19972;-88
2022/11/04 05:56:33;;;;;;;;;;;;;;;;;;2095028;28;19951;-88
2022/11/04 05:57:34;;;;;;;;;;;;;;;;;;2095315;28;19916;-88
2022/11/04 05:58:34;;;;;;;;;;;;;;;;;;2096229;28;19912;-88
2022/11/04 05:59:35;;;;;;;;;;;;;;;;;;2103356;28;19931;-87
2022/11/04 06:00:35;;;;;;;;;;;;;;;;;;2103203;28;19965;-87
2022/11/04 06:01:37;;;;;;;;;;;;;;;;;;2095051;28;20331;-87
2022/11/04 06:02:37;;;;;;;;;;;;;;;;;;2111807;28;19931;-87
2022/11/04 06:03:37;;;;;;;;;;;;;;;;;;2103415;28;19923;-88
2022/11/04 06:04:38;;;;;;;;;;;;;;;;;;2095079;28;20077;-88
2022/11/04 06:05:38;;;;;;;;;;;;;;;;;;1743141;28;10062223;-88
2022/11/04 06:06:39;;;;;;;;;;;;;;;;;;2103174;28;20053;-87
2022/11/04 06:07:39;;;;;;;;;;;;;;;;;;2112704;28;19919;-87
2022/11/04 06:08:39;;;;;;;;;;;;;;;;;;2094702;28;19991;-88
2022/11/04 06:09:40;;;;;;;;;;;;;;;;;;2086773;28;19940;-87
2022/11/04 06:10:41;;;;;;;;;;;;;;;;;;2094760;28;19916;-87
2022/11/04 06:11:42;;;;;;;;;;;;;;;;;;2095676;28;19919;-87
2022/11/04 06:12:42;;;;;;;;;;;;;;;;;;2095439;28;20047;-86
2022/11/04 06:13:43;;;;;;;;;;;;;;;;;;2095029;28;20015;-86
2022/11/04 06:14:43;;;;;;;;;;;;;;;;;;2094786;28;19912;-85
2022/11/04 06:15:43;;;;;;;;;;;;;;;;;;2111622;28;19911;-86
2022/11/04 06:16:44;;;;;;;;;;;;;;;;;;1745071;28;10203492;-87
2022/11/04 06:17:44;;;;;;;;;;;;;;;;;;2095021;28;19982;-87
2022/11/04 06:18:44;;;;;;;;;;;;;;;;;;2111660;28;19974;-86
2022/11/04 06:19:45;;;;;;;;;;;;;;;;;;1749725;28;10275290;-86
2022/11/04 06:20:45;;;;;;;;;;;;;;;;;;2095649;28;19969;-87
2022/11/04 06:21:45;;;;;;;;;;;;;;;;;;2095479;28;19973;-87
2022/11/04 06:22:46;;;;;;;;;;;;;;;;;;2111390;28;19915;-88
2022/11/04 06:23:46;;;;;;;;;;;;;;;;;;2103333;28;20219;-85
2022/11/04 06:24:47;;;;;;;;;;;;;;;;;;2086552;28;19948;-85
2022/11/04 06:25:47;;;;;;;;;;;;;;;;;;2086658;28;19920;-88
2022/11/04 06:26:50;;;;;;;;;;;;;;;;;;2094968;28;19955;-87
2022/11/04 06:27:51;;;;;;;;;;;;;;;;;;2095083;28;19913;-88
2022/11/04 06:28:51;;;;;;;;;;;;;;;;;;2095057;28;20415;-87
2022/11/04 06:29:52;;;;;;;;;;;;;;;;;;2095961;28;19913;-88
2022/11/04 06:30:52;;;;;;;;;;;;;;;;;;2095934;28;20005;-88
2022/11/04 06:31:52;;;;;;;;;;;;;;;;;;2095918;28;19955;-88
2022/11/04 06:32:53;;;;;;;;;;;;;;;;;;2095857;28;20424;-89
2022/11/04 06:33:53;;;;;;;;;;;;;;;;;;2095944;28;19942;-89
2022/11/04 06:34:53;;;;;;;;;;;;;;;;;;2095937;28;19916;-88
2022/11/04 06:35:57;;;;;;;;;;;;;;;;;;2095878;28;20427;-88
2022/11/04 06:36:58;;;;;;;;;;;;;;;;;;2112694;28;19939;-88
2022/11/04 06:37:58;;;;;;;;;;;;;;;;;;2112967;28;20033;-88
2022/11/04 06:38:59;;;;;;;;;;;;;;;;;;2096493;28;20007;-88
2022/11/04 06:39:59;;;;;;;;;;;;;;;;;;2095941;28;20010;-88
2022/11/04 06:41:00;;;;;;;;;;;;;;;;;;2095034;28;19924;-88
2022/11/04 06:42:01;;;;;;;;;;;;;;;;;;2104204;28;20009;-88
2022/11/04 06:43:02;;;;;;;;;;;;;;;;;;2103844;28;19919;-87
2022/11/04 06:44:02;;;;;;;;;;;;;;;;;;2096220;28;19978;-88
2022/11/04 06:45:03;;;;;;;;;;;;;;;;;;2104309;28;19947;-88
2022/11/04 06:46:04;;;;;;;;;;;;;;;;;;2114213;28;19954;-88
2022/11/04 06:47:05;;;;;;;;;;;;;;;;;;2122603;27;19916;-88
2022/11/04 06:48:05;;;;;;;;;;;;;;;;;;2122159;27;19916;-87
2022/11/04 06:49:06;;;;;;;;;;;;;;;;;;2115718;28;19991;-87
2022/11/04 06:50:07;;;;;;;;;;;;;;;;;;2104583;28;19954;-87
2022/11/04 06:51:07;;;;;;;;;;;;;;;;;;2098605;28;19931;-87
2022/11/04 06:52:07;;;;;;;;;;;;;;;;;;2097629;28;20385;-88
2022/11/04 06:53:08;;;;;;;;;;;;;;;;;;2097579;28;19995;-87
2022/11/04 06:54:08;;;;;;;;;;;;;;;;;;2096299;28;19912;-87
2022/11/04 06:55:09;;;;;;;;;;;;;;;;;;2096797;28;20010;-86
2022/11/04 06:56:09;;;;;;;;;;;;;;;;;;2104664;28;20425;-86
2022/11/04 06:57:10;;;;;;;;;;;;;;;;;;2113809;28;19966;-88
2022/11/04 06:58:10;;;;;;;;;;;;;;;;;;2104819;28;20341;-85
2022/11/04 06:59:18;;;;;;;;;;;;;;;;;;2096579;28;20351;-88
2022/11/04 07:00:18;;;;;;;;;;;;;;;;;;2097167;28;19916;-88
2022/11/04 07:01:19;;;;;;;;;;;;;;;;;;2097492;28;19912;-88
2022/11/04 07:02:19;;;;;;;;;;;;;;;;;;2097214;28;19912;-87
2022/11/04 07:03:19;;;;;;;;;;;;;;;;;;2097441;28;20405;-87
2022/11/04 07:04:20;;;;;;;;;;;;;;;;;;2106290;28;19909;-87
2022/11/04 07:05:20;;;;;;;;;;;;;;;;;;2107524;28;19990;-87
2022/11/04 07:06:21;;;;;;;;;;;;;;;;;;2116116;28;19923;-88
2022/11/04 07:07:21;;;;;;;;;;;;;;;;;;2120454;28;19928;-87
2022/11/04 07:08:21;;;;;;;;;;;;;;;;;;2103081;28;19912;-88
2022/11/04 07:09:22;;;;;;;;;;;;;;;;;;2096657;28;20176;-87
2022/11/04 07:10:22;;;;;;;;;;;;;;;;;;2088675;28;20011;-87
2022/11/04 07:11:23;;;;;;;;;;;;;;;;;;1738468;28;10228824;-87
2022/11/04 07:12:24;;;;;;;;;;;;;;;;;;2097181;28;19908;-88
2022/11/04 07:13:24;;;;;;;;;;;;;;;;;;2095984;28;19912;-88
2022/11/04 07:14:24;;;;;;;;;;;;;;;;;;2096544;28;20643;-88
2022/11/04 07:15:25;;;;;;;;;;;;;;;;;;2114097;28;19912;-88
2022/11/04 07:16:25;;;;;;;;;;;;;;;;;;2115521;28;20033;-87
2022/11/04 07:17:25;;;;;;;;;;;;;;;;;;2097551;28;19919;-87
2022/11/04 07:18:26;;;;;;;;;;;;;;;;;;2097543;28;19932;-87
2022/11/04 07:19:27;;;;;;;;;;;;;;;;;;2097543;28;19917;-87
2022/11/04 07:20:27;;;;;;;;;;;;;;;;;;2097476;28;20235;-87
2022/11/04 07:21:28;;;;;;;;;;;;;;;;;;2089164;28;19913;-86
2022/11/04 07:22:28;;;;;;;;;;;;;;;;;;2105788;28;19912;-87
2022/11/04 07:23:28;;;;;;;;;;;;;;;;;;2114181;28;19926;-86
2022/11/04 07:24:29;;;;;;;;;;;;;;;;;;2097539;28;19912;-87
2022/11/04 07:25:29;;;;;;;;;;;;;;;;;;2097489;28;19935;-87
2022/11/04 07:26:29;;;;;;;;;;;;;;;;;;2098287;28;19961;-87
2022/11/04 07:27:30;;;;;;;;;;;;;;;;;;2098086;28;19919;-87
2022/11/04 07:28:31;;;;;;;;;;;;;;;;;;2098013;28;19963;-87
2022/11/04 07:29:32;;;;;;;;;;;;;;;;;;2114061;28;19920;-88
2022/11/04 07:30:32;;;;;;;;;;;;;;;;;;2099314;28;20334;-96
2022/11/04 07:31:33;;;;;;;;;;;;;;;;;;2100263;28;19944;-94
2022/11/04 07:32:33;;;;;;;;;;;;;;;;;;2099319;28;19916;-96
2022/11/04 07:33:34;;;;;;;;;;;;;;;;;;2087285;28;19917;-95
2022/11/04 07:34:34;;;;;;;;;;;;;;;;;;2087740;28;19963;-96
2022/11/04 07:35:37;;;;;;;;;;;;;;;;;;2108748;28;19980;-92
2022/11/04 07:36:38;;;;;;;;;;;;;;;;;;2110660;28;19926;-88
2022/11/04 07:37:38;;;;;;;;;;;;;;;;;;2090144;28;19913;-88
2022/11/04 07:38:38;;;;;;;;;;;;;;;;;;2089793;28;19913;-87